UAL703 KLAX-KDEN
Flight info
| Callsign | UAL703 |
|---|---|
| Flight time | N/A |
| Altitude | 35000 |
| Route | ORCKA5 LAS J146 DICEE BUMMP SSKII3 |
| Aircraft | B739/M-SDE2E3FGHIRWXY/LB1 |
Departure
| Time | 2026-05-03 22:35 |
|---|---|
| Airport | Los Angeles International Airport (KLAX) |
Arrival
| Time | N/A |
|---|---|
| Airport | Denver International Airport (KDEN) |
| Time | Latitude | Longitude | Altitude | Speed | Heading |
|---|---|---|---|---|---|
| 2026-05-03 22:10 | 33.94153 | -118.39894 | 117 ft | 0 kts | 284° |
| 2026-05-03 22:28 | 33.94152 | -118.39889 | 116 ft | 2 kts | 284° |
| 2026-05-03 22:29 | 33.94150 | -118.39877 | 116 ft | 1 kts | 284° |
| 2026-05-03 22:29 | 33.94149 | -118.39859 | 116 ft | 2 kts | 248° |
| 2026-05-03 22:29 | 33.94159 | -118.39844 | 116 ft | 2 kts | 214° |
| 2026-05-03 22:29 | 33.94172 | -118.39838 | 116 ft | 1 kts | 180° |
| 2026-05-03 22:30 | 33.94179 | -118.39839 | 116 ft | 1 kts | 168° |
| 2026-05-03 22:30 | 33.94182 | -118.39840 | 116 ft | 0 kts | 172° |
| 2026-05-03 22:31 | 33.94175 | -118.39838 | 116 ft | 3 kts | 172° |
| 2026-05-03 22:31 | 33.94109 | -118.39829 | 116 ft | 14 kts | 175° |
| 2026-05-03 22:32 | 33.93997 | -118.39822 | 115 ft | 18 kts | 172° |
| 2026-05-03 22:32 | 33.93908 | -118.39719 | 114 ft | 20 kts | 89° |
| 2026-05-03 22:32 | 33.93927 | -118.39527 | 111 ft | 23 kts | 83° |
| 2026-05-03 22:32 | 33.93946 | -118.39336 | 109 ft | 22 kts | 83° |
| 2026-05-03 22:33 | 33.93965 | -118.39150 | 108 ft | 22 kts | 83° |
| 2026-05-03 22:33 | 33.93984 | -118.38970 | 107 ft | 20 kts | 83° |
| 2026-05-03 22:33 | 33.94001 | -118.38801 | 106 ft | 21 kts | 83° |
| 2026-05-03 22:33 | 33.94021 | -118.38605 | 105 ft | 25 kts | 83° |
| 2026-05-03 22:34 | 33.94044 | -118.38384 | 104 ft | 26 kts | 83° |
| 2026-05-03 22:34 | 33.94065 | -118.38171 | 103 ft | 24 kts | 83° |
| 2026-05-03 22:34 | 33.94046 | -118.38007 | 102 ft | 19 kts | 158° |
| 2026-05-03 22:34 | 33.93973 | -118.38126 | 103 ft | 24 kts | 262° |
| 2026-05-03 22:35 | 33.93925 | -118.38585 | 105 ft | 89 kts | 263° |
| 2026-05-03 22:35 | 33.93823 | -118.39596 | 113 ft | 149 kts | 263° |
| 2026-05-03 22:35 | 33.93686 | -118.40958 | 492 ft | 168 kts | 261° |
| 2026-05-03 22:35 | 33.93536 | -118.42335 | 1160 ft | 175 kts | 262° |
| 2026-05-03 22:36 | 33.93391 | -118.43868 | 1607 ft | 196 kts | 263° |
| 2026-05-03 22:36 | 33.93235 | -118.45549 | 2063 ft | 211 kts | 263° |
| 2026-05-03 22:36 | 33.92954 | -118.47364 | 2531 ft | 227 kts | 250° |